AirNav   Everest Fuels
 
 502 users online  

CA23 Maguire-California Hospital Heliport
Van Nuys, California, USA

GOING TO VAN NUYS?


FAA INFORMATION EFFECTIVE 18 JUNE 2020

Location

FAA Identifier: CA23
Lat/Long: 34-02-06.0000N 118-15-58.7900W
34-02.100000N 118-15.979833W
34.0350000,-118.2663306
(estimated)
Elevation: 376 ft. / 115 m (estimated)
From city: 2 miles SW of VAN NUYS, CA
Time zone: UTC -7 (UTC -8 during Standard Time)
Zip code: 90015

Heliport Operations

Heliport use: Private use. Permission required prior to landing
Activation date: 07/2008
Control tower: no
ARTCC: LOS ANGELES CENTER
FSS: HAWTHORNE FLIGHT SERVICE STATION
Attendance: UNATNDD
Segmented circle: no

Heliport Communications

WX ASOS at HHR (8 nm SW): PHONE 310-973-8930
WX AWOS-3PT at CPM (9 nm S): 127.150 (310-631-4958)
WX ASOS at LAX (9 nm SW): PHONE 310-568-1486
WX ASOS at SMO (9 nm W): PHONE 310-392-6453
WX ASOS at BUR (11 nm NW): PHONE 818-841-1384
WX AWOS-3PT at EMT (12 nm E): 118.75 ((626) 444-1107)
WX ASOS at LGB (14 nm SE): PHONE 562-424-0572
WX ASOS at VNY (15 nm NW): PHONE 818-904-9213
WX AWOS-3PT at WHP (15 nm NW): 132.1 (818-899-9820)
WX ASOS at FUL (17 nm SE): PHONE 714-870-1372

Nearby radio navigation aids

VOR radial/distance  VOR name  Freq  Var
SMOr066/9.6SANTA MONICA VOR/DME110.8015E
LAXr038/10.3LOS ANGELES VORTAC113.6015E
VNYr120/15.9VAN NUYS VOR/DME113.1015E
SLIr310/18.4SEAL BEACH VORTAC115.7015E
POMr249/24.0POMONA VORTAC110.4015E
ELBr295/34.3EL TORO VOR/DME117.2014E
FIMr107/36.1FILLMORE VORTAC112.5015E
PMDr181/37.2PALMDALE VORTAC114.5015E
PDZr266/37.3PARADISE VORTAC112.2015E
VTUr082/39.2VENTURA VOR/DME108.2015E

Heliport Services

Runway Information

Helipad H1

Dimensions: 54 x 54 ft. / 16 x 16 m
Surface: ROOF/TOP
Latitude: 34-02.100000N
Longitude: 118-15.979833W
Elevation: 376.0 ft.
Traffic pattern: leftleft

Heliport Ownership and Management from official FAA records

Ownership: Privately-owned
Owner: MAGUIRE PARTNERS & CA HOSPITAL
MAGUIRE PARTNERS 17TH AND GRAND
SANTA MONICA, CA 90401
Phone 310-857-1105
Manager: ROBERT SCHRITZ
7155 VALJEAN AVE
VAN NUYS, CA 91406
Phone (818) 426-7639

Additional Remarks

A52-H1 11 FT ELEVATOR 42 FT NE AND 30 FT BLDG 169 FT SE OF PAD.
THIS HELIPAD IS A JOINT VENTURE. CALIFORNIA HOSPITAL MEDICAL CENTER, 1401 SOUTH GRAND AVE, LOS ANGELES CA 90015, PHONE 213-748-2411.
FOR CD CTC LOS ANGELES ARTCC AT 661-575-2079.

Instrument Procedures

There are no published instrument procedures at CA23.

Some nearby airports with instrument procedures:

KHHR - Jack Northrop Field/Hawthorne Municipal Airport (8 nm SW)
KLAX - Los Angeles International Airport (9 nm SW)
KSMO - Santa Monica Municipal Airport (9 nm W)
KBUR - Bob Hope Airport (11 nm NW)
KEMT - San Gabriel Valley Airport (12 nm E)
KLGB - Long Beach Airport (Daugherty Field) (14 nm SE)
KTOA - Zamperini Field Airport (14 nm S)
KVNY - Van Nuys Airport (15 nm NW)
KWHP - Whiteman Airport (15 nm NW)
KFUL - Fullerton Municipal Airport (17 nm SE)
 
Loc | Ops | Rwys | IFR | FBO | Links
Com | Nav | Svcs | Stats | Notes
Aerial photo
No photo
 
Sectional chart

 
Airport distance calculator
Flying to Maguire-California Hospital Heliport? Find the distance to fly.

From to CA23

Sunrise and sunset
Times for 11-Jul-2020
 Local
(UTC-7)
 Zulu
(UTC)
Morning civil twilight05:2312:23
Sunrise05:5212:52
Sunset20:0503:05
Evening civil twilight20:3403:34

Current date and time
Zulu (UTC)  11-Jul-2020 11:09:16
Local (UTC-7)  11-Jul-2020 04:09:16
 
METAR
KCQT 
2nm NE 
111052Z AUTO 00000KT 7SM CLR 18/16 A2997 RMK AO2 SLP145 T01830156
KHHR 
8nm SW 
111053Z AUTO 00000KT 10SM CLR 19/16 A2997 RMK AO2 SLP148 T01890161
KLAX 
8nm SW 
111053Z 33003KT 7SM SCT008 18/16 A2997 RMK AO2 SLP146 T01780161 $
KSMO 
9nm W 
111051Z AUTO 00000KT 6SM BR OVC004 18/17 A2997 RMK AO2 SLP147 T01780167
KBUR 
11nm NW 
111053Z 00000KT 10SM CLR 21/14 A2997 RMK AO2 SLP135 T02110139
KEMT 
13nm E 
110250Z 21007KT 10SM CLR 28/15 A2992
KLGB 
14nm SE 
111053Z AUTO 34003KT 8SM CLR 19/17 A2997 RMK AO2 SLP147 T01890167
KWHP 
15nm NW 
110250Z 13003KT 10SM SKC 29/09 A2998
KTOA 
15nm S 
102247Z 27015KT 10SM SKC 24/19 A2995
KVNY 
15nm NW 
111051Z AUTO 00000KT 10SM CLR 23/14 A2997 RMK AO2 SLP138 T02280139
TAF
KLAX 
8nm SW 
110857Z 1109/1212 27005KT 4SM BR BKN005 FM111500 VRB03KT 6SM BR BKN008 FM111600 VRB03KT P6SM SCT010 FM111800 25006KT P6SM FEW015 FM112000 27012KT P6SM SKC FM120500 27006KT P6SM OVC006 FM120900 VRB03KT 4SM BR OVC005
KSMO 
9nm W 
111018Z 1110/1206 VRB03KT 5SM BR OVC002 FM111500 VRB03KT 6SM BR OVC005 FM111600 VRB03KT P6SM SKC FM111700 23006KT P6SM SKC FM120400 VRB03KT P6SM OVC006
KBUR 
11nm NW 
110539Z 1106/1206 13006KT P6SM SKC FM110900 VRB03KT P6SM SKC FM111900 17008KT P6SM SKC FM120400 13006KT P6SM SKC
KLGB 
14nm SE 
110943Z 1110/1206 31005KT P6SM SKC FM111300 VRB03KT 4SM BR BKN005 FM111500 VRB03KT P6SM SKC FM111800 16008KT P6SM SKC FM112300 30008KT P6SM SKC
KVNY 
15nm NW 
110539Z 1106/1206 VRB03KT P6SM SKC FM112000 15008KT P6SM SKC FM120300 12006KT P6SM SKC FM120500 VRB03KT P6SM SKC
KSLI 
20nm SE 
110501Z 1105/1211 25004KT 9999 SKC QNH2994INS BECMG 1109/1110 24004KT 9999 SCT010 QNH2995INS TEMPO 1111/1116 VRB03KT 8000 HZ OVC008 BECMG 1119/1120 VRB06KT 9999 SKC QNH3000INS TX30/1121Z TN19/1112Z
NOTAMs
Click for the latest NOTAMs
NOTAMs are issued by the DoD/FAA and will open in a separate window not controlled by AirNav.

 

 
 

Would you like to see your business listed on this page?

 If your business provides an interesting product or service to pilots, flight crews, aircraft, or users of the Maguire-California Hospital Heliport, you should consider listing it here.  To start the listing process, click on the button below
 
Add a business
 

Other Pages about Maguire-California Hospital Heliport

Update a link
 
Copyright © AirNav, LLC. All rights reserved. Privacy Policy  Contact